Time;durP1;ratioP1;P1;durP2;ratioP2;P2;SDS_P1;SDS_P2;PMS_P1;PMS_P2;Temp;Humidity;BMP_temperature;BMP_pressure;BME280_temperature;BME280_humidity;BME280_pressure;Samples;Min_cycle;Max_cycle;Signal;HPM_P1;HPM_P2
2023/12/24 00:01:24;;;;;;;1.07;0.53;;;0.80;99.90;;;;;;8202735;28;20400;-66
2023/12/24 00:05:24;;;;;;;0.53;0.53;;;0.80;99.90;;;;;;8203170;28;20284;-67
2023/12/24 00:09:25;;;;;;;0.40;0.40;;;0.80;99.90;;;;;;8200211;28;20280;-67
2023/12/24 00:13:26;;;;;;;1.00;0.60;;;0.80;99.90;;;;;;8211679;28;20212;-67
2023/12/24 00:17:27;;;;;;;1.30;0.57;;;0.90;99.90;;;;;;8198981;28;20189;-67
2023/12/24 00:21:28;;;;;;;0.63;0.50;;;0.80;99.90;;;;;;8200642;28;20207;-68
2023/12/24 00:25:30;;;;;;;0.70;0.53;;;0.80;99.90;;;;;;8201786;28;20229;-67
2023/12/24 00:29:30;;;;;;;1.27;0.53;;;0.90;99.90;;;;;;8198930;28;20189;-67
2023/12/24 00:33:31;;;;;;;0.50;0.50;;;1.00;99.90;;;;;;8199772;28;20220;-67
2023/12/24 00:37:32;;;;;;;0.50;0.50;;;1.00;99.90;;;;;;8203834;28;20216;-66
2023/12/24 00:41:32;;;;;;;0.70;0.50;;;1.00;99.90;;;;;;8202860;28;20291;-66
2023/12/24 00:45:34;;;;;;;0.60;0.50;;;1.00;99.90;;;;;;8195298;28;20211;-64
2023/12/24 00:49:34;;;;;;;0.70;0.50;;;1.00;99.90;;;;;;8205702;28;20391;-65
2023/12/24 00:53:36;;;;;;;0.70;0.70;;;1.10;99.90;;;;;;8198840;28;20212;-63
2023/12/24 00:57:37;;;;;;;0.73;0.73;;;1.20;99.90;;;;;;8198166;28;20189;-63
2023/12/24 01:01:38;;;;;;;0.73;0.60;;;1.20;99.90;;;;;;8189723;28;20188;-62
2023/12/24 01:05:38;;;;;;;0.90;0.80;;;1.20;99.90;;;;;;8198410;28;20212;-63
2023/12/24 01:09:39;;;;;;;1.07;0.87;;;1.20;99.90;;;;;;8190600;28;20481;-62
2023/12/24 01:13:40;;;;;;;1.43;1.17;;;1.20;99.90;;;;;;8190911;28;20348;-63
2023/12/24 01:17:41;;;;;;;0.73;0.73;;;1.20;99.90;;;;;;8193632;28;20199;-62
2023/12/24 01:21:42;;;;;;;1.93;1.00;;;1.20;99.90;;;;;;8188281;28;20199;-61
2023/12/24 01:25:43;;;;;;;1.13;0.90;;;1.20;99.90;;;;;;8211786;28;20204;-62
2023/12/24 01:29:44;;;;;;;1.77;1.00;;;1.30;99.90;;;;;;8202973;28;20279;-60
2023/12/24 01:33:45;;;;;;;1.13;0.93;;;1.20;99.90;;;;;;8205491;28;20225;-63
2023/12/24 01:37:45;;;;;;;0.70;0.70;;;1.20;99.90;;;;;;8203652;28;20528;-65
2023/12/24 01:41:47;;;;;;;1.43;1.20;;;1.20;99.90;;;;;;8200158;28;20197;-64
2023/12/24 01:45:48;;;;;;;1.83;1.30;;;1.20;99.90;;;;;;8198998;28;20189;-61
2023/12/24 01:49:50;;;;;;;1.90;1.40;;;1.20;99.90;;;;;;8192662;28;20201;-60
2023/12/24 01:53:52;;;;;;;1.70;1.50;;;1.20;99.90;;;;;;8196222;28;20228;-65
2023/12/24 01:57:53;;;;;;;1.47;1.33;;;1.20;99.90;;;;;;8192938;28;22002;-63
2023/12/24 02:01:53;;;;;;;1.53;1.23;;;1.20;99.90;;;;;;8190470;28;20203;-62
2023/12/24 02:05:56;;;;;;;1.23;1.10;;;1.20;99.90;;;;;;8186180;28;20208;-65
2023/12/24 02:09:58;;;;;;;1.43;1.20;;;1.20;99.90;;;;;;8194869;28;20200;-63
2023/12/24 02:13:59;;;;;;;1.03;0.93;;;1.20;99.90;;;;;;8200537;28;20217;-63
2023/12/24 02:18:01;;;;;;;1.30;1.20;;;1.20;99.90;;;;;;8187218;28;20298;-63
2023/12/24 02:22:02;;;;;;;1.80;1.57;;;1.20;99.90;;;;;;8195649;28;20192;-65
2023/12/24 02:26:11;;;;;;;3.83;1.33;;;1.20;99.90;;;;;;8188523;28;20613;-64
2023/12/24 02:30:20;;;;;;;2.07;1.50;;;1.20;99.90;;;;;;8190623;28;20232;-65
2023/12/24 02:34:21;;;;;;;1.77;1.30;;;1.20;99.90;;;;;;8208585;28;20244;-66
2023/12/24 02:38:22;;;;;;;1.63;1.53;;;1.20;99.90;;;;;;8198488;28;20271;-63
2023/12/24 02:42:23;;;;;;;1.60;1.40;;;1.20;99.90;;;;;;8192844;28;20231;-64
2023/12/24 02:46:23;;;;;;;2.13;1.20;;;1.20;99.90;;;;;;8198153;28;20180;-63
2023/12/24 02:50:24;;;;;;;1.40;1.30;;;1.20;99.90;;;;;;8200297;28;20301;-65
2023/12/24 02:54:25;;;;;;;1.90;1.60;;;1.20;99.90;;;;;;8204922;28;20213;-63
2023/12/24 02:58:28;;;;;;;1.87;1.70;;;1.20;99.90;;;;;;8203258;28;20263;-64
2023/12/24 03:02:28;;;;;;;2.07;1.90;;;1.20;99.90;;;;;;8203114;28;20188;-64
2023/12/24 03:06:29;;;;;;;2.43;1.90;;;1.10;99.90;;;;;;8196499;28;20248;-65
2023/12/24 03:10:30;;;;;;;2.23;1.70;;;1.10;99.90;;;;;;8199994;28;20515;-64
2023/12/24 03:14:31;;;;;;;2.97;2.40;;;1.10;99.90;;;;;;8197768;28;20214;-70
2023/12/24 03:18:32;;;;;;;2.33;1.70;;;1.10;99.90;;;;;;8205308;28;20193;-68
2023/12/24 03:22:32;;;;;;;2.57;1.80;;;1.10;99.90;;;;;;8207059;28;20192;-70
2023/12/24 03:26:33;;;;;;;2.37;1.70;;;1.10;99.90;;;;;;8205555;28;20203;-68
2023/12/24 03:30:34;;;;;;;2.10;1.60;;;1.10;99.90;;;;;;8198970;28;20201;-68
2023/12/24 03:34:35;;;;;;;1.73;1.60;;;1.10;99.90;;;;;;8198350;28;20303;-67
2023/12/24 03:38:36;;;;;;;1.70;1.50;;;1.00;99.90;;;;;;8199649;28;20195;-69
2023/12/24 03:42:37;;;;;;;2.03;1.80;;;1.00;99.90;;;;;;8201182;28;20200;-69
2023/12/24 03:46:38;;;;;;;3.50;1.93;;;1.10;99.90;;;;;;8198742;28;20193;-68
2023/12/24 03:50:38;;;;;;;3.97;1.93;;;1.10;99.90;;;;;;8199681;28;20206;-69
2023/12/24 03:54:39;;;;;;;2.63;1.90;;;1.10;99.90;;;;;;8202278;28;20227;-71
2023/12/24 03:58:40;;;;;;;2.97;1.90;;;1.00;99.90;;;;;;8204287;28;20186;-72
2023/12/24 04:02:40;;;;;;;2.47;1.80;;;1.00;99.90;;;;;;8195838;28;20196;-69
2023/12/24 04:06:41;;;;;;;2.50;1.70;;;1.00;99.90;;;;;;8201635;28;20271;-71
2023/12/24 04:10:42;;;;;;;2.90;1.70;;;1.00;99.90;;;;;;8202159;28;20200;-67
2023/12/24 04:14:43;;;;;;;2.20;1.10;;;1.00;99.90;;;;;;8204056;28;20226;-67
2023/12/24 04:18:44;;;;;;;2.77;1.70;;;1.00;99.90;;;;;;8204517;28;20192;-64
2023/12/24 04:22:45;;;;;;;1.80;1.33;;;1.10;99.90;;;;;;8198558;28;20189;-64
2023/12/24 04:26:45;;;;;;;4.00;2.20;;;1.10;99.90;;;;;;8216148;28;20200;-62
2023/12/24 04:30:46;;;;;;;3.33;2.03;;;1.10;99.90;;;;;;8199415;28;20296;-63
2023/12/24 04:34:47;;;;;;;2.90;2.20;;;1.10;99.90;;;;;;8200268;28;20307;-67
2023/12/24 04:38:47;;;;;;;2.43;2.23;;;1.10;99.90;;;;;;8202575;28;20181;-65
2023/12/24 04:42:48;;;;;;;3.63;2.53;;;1.10;99.90;;;;;;8207575;28;20299;-66
2023/12/24 04:46:49;;;;;;;4.40;2.77;;;1.10;99.90;;;;;;8197699;28;20212;-63
2023/12/24 04:50:49;;;;;;;5.37;4.63;;;1.10;99.90;;;;;;8201031;28;20516;-65
2023/12/24 04:54:50;;;;;;;7.77;3.97;;;1.10;99.90;;;;;;8196349;28;20204;-63
2023/12/24 04:58:51;;;;;;;10.23;6.83;;;1.10;99.90;;;;;;8213599;28;20185;-62
2023/12/24 05:02:52;;;;;;;10.63;5.77;;;1.20;99.90;;;;;;8199746;28;20192;-62
2023/12/24 05:06:52;;;;;;;4.20;3.00;;;1.20;99.90;;;;;;8197939;28;20239;-66
2023/12/24 05:10:53;;;;;;;3.20;2.60;;;1.10;99.90;;;;;;8207170;28;20181;-64
2023/12/24 05:14:54;;;;;;;3.10;2.30;;;1.10;99.90;;;;;;8198351;28;20311;-64
2023/12/24 05:18:54;;;;;;;2.43;1.87;;;1.20;99.90;;;;;;8197176;28;20188;-66
2023/12/24 05:22:56;;;;;;;3.00;2.20;;;1.20;99.90;;;;;;8202869;28;20223;-66
2023/12/24 05:26:57;;;;;;;2.57;2.10;;;1.20;99.90;;;;;;8200557;28;20216;-65
2023/12/24 05:30:59;;;;;;;2.43;2.10;;;1.20;99.90;;;;;;8195761;28;20232;-64
2023/12/24 05:34:59;;;;;;;2.30;1.97;;;1.20;99.90;;;;;;8212340;28;20189;-66
2023/12/24 05:39:00;;;;;;;2.97;2.40;;;1.20;99.90;;;;;;8197813;28;20189;-66
2023/12/24 05:43:01;;;;;;;2.90;2.40;;;1.10;99.90;;;;;;8194743;28;20185;-67
2023/12/24 05:47:02;;;;;;;3.30;2.20;;;1.00;99.90;;;;;;8201084;28;20196;-66
2023/12/24 05:51:03;;;;;;;3.00;2.70;;;1.00;99.90;;;;;;8200311;28;20197;-67
2023/12/24 05:55:06;;;;;;;3.80;2.50;;;1.00;99.90;;;;;;8203261;28;20185;-64
2023/12/24 05:59:06;;;;;;;3.47;2.37;;;1.00;99.90;;;;;;8196887;28;20181;-62
2023/12/24 06:03:07;;;;;;;3.00;2.70;;;1.00;99.90;;;;;;8196374;28;20193;-61
2023/12/24 06:07:08;;;;;;;2.30;1.97;;;1.00;99.90;;;;;;8206396;28;20185;-63
2023/12/24 06:11:16;;;;;;;3.40;2.47;;;1.00;99.90;;;;;;8206489;28;20271;-65
2023/12/24 06:15:17;;;;;;;3.07;2.77;;;1.00;99.90;;;;;;8202884;28;20178;-62
2023/12/24 06:19:18;;;;;;;2.67;2.40;;;1.00;99.90;;;;;;8205783;28;20177;-63
2023/12/24 06:23:18;;;;;;;3.97;2.97;;;0.90;99.90;;;;;;8204822;28;20200;-62
2023/12/24 06:27:19;;;;;;;4.17;3.77;;;0.90;99.90;;;;;;8205848;28;20195;-64
2023/12/24 06:31:22;;;;;;;4.30;3.90;;;0.90;99.90;;;;;;8206419;28;20307;-61
2023/12/24 06:35:23;;;;;;;5.27;3.83;;;0.90;99.90;;;;;;8205335;28;20181;-62
2023/12/24 06:39:24;;;;;;;9.83;8.83;;;1.00;99.90;;;;;;8217937;28;20279;-63
2023/12/24 06:43:24;;;;;;;14.70;7.80;;;1.00;99.90;;;;;;8210293;28;20375;-62
2023/12/24 06:47:25;;;;;;;3.50;3.00;;;1.00;99.90;;;;;;8214745;28;20210;-64
2023/12/24 06:51:26;;;;;;;5.57;3.33;;;1.00;99.90;;;;;;8212363;28;20281;-64
2023/12/24 06:55:27;;;;;;;4.67;2.83;;;1.10;99.90;;;;;;8212530;28;20188;-64
2023/12/24 06:59:27;;;;;;;5.93;3.40;;;1.10;99.90;;;;;;8218684;28;20196;-62
2023/12/24 07:03:28;;;;;;;7.23;5.50;;;1.10;99.90;;;;;;8214315;28;20205;-67
2023/12/24 07:07:29;;;;;;;5.80;4.63;;;1.20;99.90;;;;;;8203569;28;20359;-66
2023/12/24 07:11:29;;;;;;;4.10;2.83;;;1.20;99.90;;;;;;8204602;28;20220;-66
2023/12/24 07:15:32;;;;;;;2.50;2.07;;;1.20;99.90;;;;;;8200038;28;20193;-66
2023/12/24 07:19:33;;;;;;;5.27;3.27;;;1.20;99.90;;;;;;8203877;28;20181;-65
2023/12/24 07:23:34;;;;;;;14.63;5.83;;;1.30;99.90;;;;;;8199858;28;20862;-64
2023/12/24 07:27:35;;;;;;;18.47;6.63;;;1.30;99.90;;;;;;8202502;28;20263;-66
2023/12/24 07:31:36;;;;;;;6.77;3.87;;;1.40;99.90;;;;;;8199092;28;20251;-65
2023/12/24 07:35:37;;;;;;;23.57;13.70;;;1.40;99.90;;;;;;8210643;28;20193;-65
2023/12/24 07:39:37;;;;;;;19.17;11.87;;;1.50;99.90;;;;;;8202530;28;20194;-65
2023/12/24 07:43:38;;;;;;;34.83;15.80;;;1.60;99.90;;;;;;8204147;28;20747;-65
2023/12/24 07:47:39;;;;;;;27.37;10.03;;;1.70;99.90;;;;;;8205357;28;20189;-65
2023/12/24 07:51:41;;;;;;;9.53;5.43;;;1.80;99.90;;;;;;8197139;28;20209;-64
2023/12/24 07:55:41;;;;;;;8.83;4.93;;;1.80;99.90;;;;;;8209430;28;20255;-64
2023/12/24 07:59:42;;;;;;;5.80;4.23;;;1.90;99.90;;;;;;8198951;28;20188;-64
2023/12/24 08:03:43;;;;;;;11.10;5.60;;;2.10;99.90;;;;;;8201673;28;20212;-64
2023/12/24 08:07:44;;;;;;;17.23;9.57;;;2.20;99.90;;;;;;8191776;28;20192;-63
2023/12/24 08:11:45;;;;;;;14.47;9.27;;;2.30;99.90;;;;;;8211088;28;20585;-61
2023/12/24 08:15:46;;;;;;;13.13;8.53;;;2.50;99.90;;;;;;8186327;28;20264;-64
2023/12/24 08:19:47;;;;;;;6.40;4.00;;;2.70;99.90;;;;;;8180300;28;20204;-65
2023/12/24 08:23:48;;;;;;;3.33;2.63;;;3.00;99.90;;;;;;8169160;28;20201;-66
2023/12/24 08:27:49;;;;;;;3.23;2.50;;;3.30;99.90;;;;;;8170122;28;20194;-66
2023/12/24 08:31:49;;;;;;;4.07;2.37;;;3.70;99.90;;;;;;8181802;28;20221;-66
2023/12/24 08:35:50;;;;;;;2.73;2.20;;;4.00;99.90;;;;;;8197036;28;20276;-63
2023/12/24 08:39:51;;;;;;;2.87;2.20;;;4.20;99.90;;;;;;8197132;29;20185;-62
2023/12/24 08:43:52;;;;;;;2.40;2.13;;;4.40;99.90;;;;;;8211082;28;20201;-61
2023/12/24 08:47:53;;;;;;;2.47;2.03;;;4.70;99.90;;;;;;8193332;28;20213;-60
2023/12/24 08:51:54;;;;;;;1.87;1.50;;;4.90;99.90;;;;;;8193200;29;20660;-61
2023/12/24 08:55:55;;;;;;;2.03;1.50;;;5.00;99.90;;;;;;8193988;28;20190;-62
2023/12/24 08:59:56;;;;;;;4.30;1.83;;;5.20;99.90;;;;;;8206770;28;20269;-63
2023/12/24 09:03:57;;;;;;;4.13;1.90;;;5.30;99.90;;;;;;8207546;28;20275;-62
2023/12/24 09:07:58;;;;;;;2.67;1.47;;;5.40;99.90;;;;;;8191004;28;20189;-63
2023/12/24 09:11:59;;;;;;;1.30;1.10;;;5.50;99.90;;;;;;8187192;28;20213;-62
2023/12/24 09:16:00;;;;;;;1.93;1.40;;;5.60;99.90;;;;;;8192483;29;20186;-62
2023/12/24 09:20:00;;;;;;;1.30;1.13;;;5.70;99.90;;;;;;8196999;28;20320;-62
2023/12/24 09:24:02;;;;;;;1.93;1.30;;;5.90;99.90;;;;;;8195048;28;20455;-62
2023/12/24 09:28:03;;;;;;;1.63;1.00;;;6.10;99.90;;;;;;8187832;29;20188;-62
2023/12/24 09:32:04;;;;;;;1.30;0.80;;;6.20;99.90;;;;;;8187896;28;20213;-64
2023/12/24 09:36:07;;;;;;;1.07;0.80;;;6.30;99.90;;;;;;8189628;28;20186;-62
2023/12/24 09:40:08;;;;;;;2.40;0.90;;;6.40;99.90;;;;;;8193910;28;20177;-62
2023/12/24 09:44:09;;;;;;;2.63;0.80;;;6.40;99.90;;;;;;8188406;29;20213;-62
2023/12/24 09:48:10;;;;;;;1.70;1.00;;;6.50;99.90;;;;;;8191642;29;20204;-62
2023/12/24 09:52:11;;;;;;;0.80;0.70;;;6.60;99.90;;;;;;8187877;28;20205;-63
2023/12/24 09:56:12;;;;;;;1.40;0.70;;;6.60;99.90;;;;;;8187402;28;20189;-63
2023/12/24 10:00:17;;;;;;;1.47;0.67;;;6.60;99.90;;;;;;8166794;28;20257;-63
2023/12/24 10:04:18;;;;;;;2.43;0.90;;;6.70;99.90;;;;;;8173425;28;20219;-62
2023/12/24 10:08:19;;;;;;;1.53;0.90;;;6.80;99.90;;;;;;8188450;29;20192;-62
2023/12/24 10:12:21;;;;;;;1.33;0.80;;;6.90;99.90;;;;;;8186840;28;20204;-63
2023/12/24 10:16:22;;;;;;;1.40;1.00;;;7.10;99.90;;;;;;8174112;28;20192;-67
2023/12/24 10:20:22;;;;;;;1.27;0.80;;;7.10;99.90;;;;;;8165292;28;20444;-64
2023/12/24 10:24:23;;;;;;;1.10;0.93;;;7.10;99.90;;;;;;8170678;28;20186;-64
2023/12/24 10:28:24;;;;;;;2.77;1.00;;;7.10;99.90;;;;;;8177565;28;20204;-64
2023/12/24 10:32:25;;;;;;;1.93;1.10;;;7.10;99.90;;;;;;8169027;29;20790;-65
2023/12/24 10:36:25;;;;;;;1.20;0.90;;;7.10;99.90;;;;;;8162983;28;20185;-64
2023/12/24 10:40:26;;;;;;;1.00;0.90;;;7.10;99.90;;;;;;8175984;28;20209;-64
2023/12/24 10:44:27;;;;;;;0.90;0.83;;;7.20;99.90;;;;;;8173779;28;20185;-64
2023/12/24 10:48:28;;;;;;;1.57;0.97;;;7.20;99.90;;;;;;8178009;29;20303;-65
2023/12/24 10:52:29;;;;;;;0.87;0.70;;;7.30;99.90;;;;;;8192830;28;20217;-65
2023/12/24 10:56:37;;;;;;;2.63;1.00;;;7.40;99.90;;;;;;8182078;28;20197;-64
2023/12/24 11:00:38;;;;;;;2.60;0.70;;;7.50;99.90;;;;;;8182286;28;20186;-64
2023/12/24 11:04:45;;;;;;;1.33;0.80;;;7.50;99.90;;;;;;8186533;28;20296;-64
2023/12/24 11:08:46;;;;;;;1.67;1.10;;;7.60;99.90;;;;;;8206421;28;20311;-66
2023/12/24 11:12:47;;;;;;;1.43;0.93;;;7.80;99.90;;;;;;8191169;28;20418;-66
2023/12/24 11:16:48;;;;;;;1.27;1.10;;;7.90;99.90;;;;;;8192230;28;20181;-63
2023/12/24 11:20:57;;;;;;;3.87;1.50;;;8.00;99.90;;;;;;8187678;28;20183;-63
2023/12/24 11:25:16;;;;;;;3.10;1.10;;;8.10;99.90;;;;;;8196448;28;20516;-64
2023/12/24 11:29:42;;;;;;;4.00;1.30;;;8.20;99.90;;;;;;8200813;28;20179;-64
2023/12/24 11:33:46;;;;;;;3.20;1.30;;;8.30;99.90;;;;;;8194272;28;20310;-65
2023/12/24 11:37:47;;;;;;;1.53;1.17;;;8.30;99.90;;;;;;8192222;28;20190;-65
2023/12/24 11:41:50;;;;;;;2.23;1.10;;;8.30;99.90;;;;;;8193042;28;20190;-65
2023/12/24 11:45:52;;;;;;;2.03;0.77;;;8.30;99.90;;;;;;8193795;28;20294;-65
2023/12/24 11:49:53;;;;;;;2.30;0.90;;;8.30;99.90;;;;;;8186966;28;20191;-68
2023/12/24 11:54:03;;;;;;;2.00;1.03;;;8.20;99.90;;;;;;8192034;28;20280;-63
2023/12/24 11:58:04;;;;;;;1.73;1.10;;;8.20;99.90;;;;;;8187745;28;20221;-64
2023/12/24 12:02:05;;;;;;;1.97;1.10;;;8.20;99.90;;;;;;8193700;28;20186;-66
2023/12/24 12:06:06;;;;;;;3.93;2.80;;;8.30;99.90;;;;;;8185266;28;20206;-68
2023/12/24 12:10:07;;;;;;;1.57;0.97;;;8.30;99.90;;;;;;8190678;28;20182;-66
2023/12/24 12:14:09;;;;;;;3.43;2.30;;;8.30;99.90;;;;;;8187550;28;20240;-64
2023/12/24 12:18:10;;;;;;;1.40;1.00;;;8.30;99.90;;;;;;8188793;28;20179;-64
2023/12/24 12:22:16;;;;;;;1.33;1.20;;;8.40;99.90;;;;;;8219167;28;20216;-64
2023/12/24 12:26:16;;;;;;;2.10;1.57;;;8.60;99.90;;;;;;8194019;28;20359;-64
2023/12/24 12:30:19;;;;;;;1.50;0.97;;;8.60;99.90;;;;;;8189662;28;20208;-65
2023/12/24 12:34:21;;;;;;;2.27;1.40;;;8.60;99.90;;;;;;8189035;28;20207;-64
2023/12/24 12:38:22;;;;;;;1.90;0.70;;;8.70;99.90;;;;;;8169421;28;20827;-68
2023/12/24 12:42:23;;;;;;;1.17;0.90;;;8.70;99.90;;;;;;8169673;28;20194;-64
2023/12/24 12:46:24;;;;;;;0.73;0.70;;;8.70;99.90;;;;;;8166282;28;20480;-65
2023/12/24 12:50:24;;;;;;;2.47;1.00;;;8.70;99.90;;;;;;8163804;28;20195;-64
2023/12/24 12:54:25;;;;;;;1.60;0.93;;;8.80;99.90;;;;;;8173975;28;20306;-64
2023/12/24 12:58:26;;;;;;;1.23;0.70;;;8.80;99.90;;;;;;8169962;28;20195;-65
2023/12/24 13:02:27;;;;;;;1.20;0.70;;;8.90;99.90;;;;;;8171943;28;20235;-65
2023/12/24 13:06:27;;;;;;;25.60;9.70;;;8.80;99.90;;;;;;8166389;28;20626;-64
2023/12/24 13:10:30;;;;;;;4.10;1.33;;;8.80;99.90;;;;;;8200619;28;20540;-65
2023/12/24 13:14:34;;;;;;;1.60;1.03;;;8.80;99.90;;;;;;8163552;28;20226;-65
2023/12/24 13:18:35;;;;;;;1.27;0.93;;;8.80;99.90;;;;;;8166506;28;20271;-64
2023/12/24 13:22:38;;;;;;;1.30;0.90;;;8.80;99.90;;;;;;8173435;28;20194;-67
2023/12/24 13:26:39;;;;;;;3.37;1.70;;;8.80;99.90;;;;;;8201235;28;20195;-67
2023/12/24 13:30:41;;;;;;;2.70;1.87;;;8.80;99.90;;;;;;8165641;28;20202;-65
2023/12/24 13:34:44;;;;;;;2.10;1.23;;;8.80;99.90;;;;;;8167287;28;20296;-63
2023/12/24 13:38:45;;;;;;;2.47;2.27;;;8.70;99.90;;;;;;8169229;28;20215;-63
2023/12/24 13:42:46;;;;;;;1.83;0.83;;;8.70;99.90;;;;;;8193662;28;20197;-65
2023/12/24 13:46:48;;;;;;;2.03;1.57;;;8.80;99.90;;;;;;8180691;28;20199;-64
2023/12/24 13:50:50;;;;;;;2.00;0.90;;;8.80;99.90;;;;;;8182178;28;20194;-63
2023/12/24 13:54:51;;;;;;;0.97;0.73;;;8.80;99.90;;;;;;8181176;28;20200;-65
2023/12/24 13:58:52;;;;;;;1.30;0.87;;;8.90;99.90;;;;;;8184961;28;20204;-64
2023/12/24 14:02:56;;;;;;;0.93;0.60;;;8.90;99.90;;;;;;8186254;28;20194;-66
2023/12/24 14:06:58;;;;;;;0.80;0.60;;;8.90;99.90;;;;;;8164513;28;20699;-62
2023/12/24 14:10:59;;;;;;;0.90;0.47;;;8.90;99.90;;;;;;8161735;28;20187;-64
2023/12/24 14:15:00;;;;;;;2.23;2.00;;;8.90;99.90;;;;;;8165889;28;20233;-64
2023/12/24 14:19:00;;;;;;;5.50;2.60;;;8.90;99.90;;;;;;8168065;28;20183;-63
2023/12/24 14:23:01;;;;;;;0.90;0.80;;;8.90;99.90;;;;;;8174027;28;20195;-64
2023/12/24 14:27:02;;;;;;;1.47;1.13;;;9.00;99.90;;;;;;8174202;28;20195;-64
2023/12/24 14:31:03;;;;;;;1.20;0.87;;;9.00;99.90;;;;;;8171365;28;20198;-64
2023/12/24 14:35:05;;;;;;;1.50;0.60;;;9.10;99.90;;;;;;8170672;28;20247;-67
2023/12/24 14:39:06;;;;;;;1.00;0.83;;;9.10;99.90;;;;;;8174345;28;20298;-64
2023/12/24 14:43:07;;;;;;;3.60;0.80;;;9.20;99.90;;;;;;8176083;28;20232;-66
2023/12/24 14:47:08;;;;;;;1.23;0.60;;;9.10;99.90;;;;;;8171342;28;20195;-65
2023/12/24 14:51:09;;;;;;;1.30;0.57;;;9.20;99.90;;;;;;8201879;28;20218;-64
2023/12/24 14:55:10;;;;;;;1.27;0.50;;;9.20;99.90;;;;;;8179661;28;20311;-65
2023/12/24 14:59:11;;;;;;;2.07;0.70;;;9.20;99.90;;;;;;8179291;28;20178;-64
2023/12/24 15:03:14;;;;;;;1.20;0.60;;;9.30;99.90;;;;;;8182038;28;20200;-65
2023/12/24 15:07:18;;;;;;;1.13;0.50;;;9.30;99.90;;;;;;8184654;28;20211;-65
2023/12/24 15:11:19;;;;;;;1.03;0.90;;;9.30;99.90;;;;;;8182720;28;20195;-63
2023/12/24 15:15:20;;;;;;;1.27;0.80;;;9.20;99.90;;;;;;8179111;28;20241;-64
2023/12/24 15:19:21;;;;;;;1.00;0.70;;;9.20;99.90;;;;;;8175184;28;20361;-64
2023/12/24 15:23:21;;;;;;;0.67;0.53;;;9.30;99.90;;;;;;8169855;28;20234;-65
2023/12/24 15:27:22;;;;;;;1.20;0.77;;;9.30;99.90;;;;;;8179440;28;20233;-65
2023/12/24 15:31:23;;;;;;;1.37;0.70;;;9.30;99.90;;;;;;8182688;28;20210;-64
2023/12/24 15:35:24;;;;;;;1.83;0.90;;;9.40;99.90;;;;;;8182744;28;20194;-65
2023/12/24 15:39:24;;;;;;;1.17;0.90;;;9.50;99.90;;;;;;8185573;28;20200;-64
2023/12/24 15:43:26;;;;;;;1.53;0.73;;;9.50;99.90;;;;;;8178556;28;20272;-64
2023/12/24 15:47:27;;;;;;;0.80;0.53;;;9.50;99.90;;;;;;8185190;28;20188;-63
2023/12/24 15:51:28;;;;;;;1.20;1.00;;;9.50;99.90;;;;;;8180746;28;20208;-64
2023/12/24 15:55:29;;;;;;;1.27;0.93;;;9.50;99.90;;;;;;8183555;28;20183;-65
2023/12/24 15:59:31;;;;;;;7.33;3.60;;;9.50;99.90;;;;;;8182101;28;20201;-65
2023/12/24 16:03:32;;;;;;;5.17;3.07;;;9.50;99.90;;;;;;8179740;28;20217;-65
2023/12/24 16:07:32;;;;;;;1.63;1.27;;;9.60;99.90;;;;;;8188492;28;20290;-67
2023/12/24 16:11:34;;;;;;;1.63;1.40;;;9.50;99.90;;;;;;8179721;28;20199;-65
2023/12/24 16:15:34;;;;;;;1.37;1.20;;;9.60;99.90;;;;;;8193855;28;20185;-66
2023/12/24 16:19:35;;;;;;;1.57;1.17;;;9.60;99.90;;;;;;8182084;28;20189;-65
2023/12/24 16:23:36;;;;;;;1.80;1.13;;;9.60;99.90;;;;;;8178501;28;20196;-64
2023/12/24 16:27:43;;;;;;;3.03;0.80;;;9.60;99.90;;;;;;8179796;28;20224;-65
2023/12/24 16:31:43;;;;;;;2.90;0.77;;;9.60;99.90;;;;;;8183570;28;20290;-66
2023/12/24 16:35:44;;;;;;;1.93;0.93;;;9.60;99.90;;;;;;8174998;28;20189;-65
2023/12/24 16:39:46;;;;;;;1.47;0.70;;;9.50;99.90;;;;;;8178465;28;20246;-65
2023/12/24 16:43:47;;;;;;;1.40;0.80;;;9.40;99.90;;;;;;8174282;28;20201;-64
2023/12/24 16:47:47;;;;;;;2.00;1.13;;;9.30;99.90;;;;;;8179028;28;20279;-64
2023/12/24 16:51:48;;;;;;;1.53;0.80;;;9.20;99.90;;;;;;8184063;28;20220;-65
2023/12/24 16:55:49;;;;;;;1.47;1.00;;;9.20;99.90;;;;;;8187841;28;20191;-65
2023/12/24 16:59:49;;;;;;;2.83;1.87;;;9.20;99.90;;;;;;8188469;28;20189;-65
2023/12/24 17:03:51;;;;;;;2.50;1.33;;;9.10;99.90;;;;;;8180512;28;20220;-65
2023/12/24 17:07:52;;;;;;;2.13;1.40;;;9.10;99.90;;;;;;8185214;28;20619;-64
2023/12/24 17:11:52;;;;;;;3.50;1.97;;;9.00;99.90;;;;;;8180148;28;20214;-64
2023/12/24 17:15:53;;;;;;;3.40;1.87;;;9.00;99.90;;;;;;8212704;28;20334;-63
2023/12/24 17:19:55;;;;;;;17.80;5.03;;;9.00;99.90;;;;;;8181918;28;20262;-64
2023/12/24 17:23:55;;;;;;;14.77;8.30;;;8.90;99.90;;;;;;8178397;28;20227;-63
2023/12/24 17:27:57;;;;;;;3.10;2.20;;;8.90;99.90;;;;;;8182968;28;20204;-64
2023/12/24 17:31:58;;;;;;;2.47;1.87;;;8.80;99.90;;;;;;8187047;28;20594;-65
2023/12/24 17:35:59;;;;;;;2.47;1.70;;;8.80;99.90;;;;;;8204588;28;20186;-65
2023/12/24 17:40:00;;;;;;;4.43;2.10;;;8.80;99.90;;;;;;8204521;28;20183;-65
2023/12/24 17:44:01;;;;;;;3.27;1.80;;;8.80;99.90;;;;;;8197350;28;20203;-65
2023/12/24 17:48:02;;;;;;;2.87;1.80;;;8.80;99.90;;;;;;8199133;28;20198;-68
2023/12/24 17:52:04;;;;;;;7.13;4.47;;;8.70;99.90;;;;;;8201890;28;20203;-65
2023/12/24 17:56:04;;;;;;;7.60;6.67;;;8.80;99.90;;;;;;8204300;28;20539;-64
2023/12/24 18:00:06;;;;;;;3.33;2.17;;;8.80;99.90;;;;;;8216655;28;20188;-67
2023/12/24 18:04:07;;;;;;;2.10;1.60;;;8.90;99.90;;;;;;8219535;28;20220;-65
2023/12/24 18:08:07;;;;;;;2.67;1.73;;;8.90;99.90;;;;;;8214175;28;20310;-65
2023/12/24 18:12:09;;;;;;;1.90;1.40;;;8.90;99.90;;;;;;8208811;28;20227;-65
2023/12/24 18:16:10;;;;;;;2.67;1.63;;;9.00;99.90;;;;;;8215205;28;20187;-66
2023/12/24 18:20:11;;;;;;;2.30;1.57;;;9.00;99.90;;;;;;8207065;28;20194;-67
2023/12/24 18:24:12;;;;;;;4.33;1.50;;;9.10;99.90;;;;;;8212691;28;20193;-65
2023/12/24 18:28:19;;;;;;;2.40;1.50;;;9.00;99.90;;;;;;8215370;28;20214;-66
2023/12/24 18:32:19;;;;;;;3.37;1.70;;;9.10;99.90;;;;;;8228983;28;20211;-66
2023/12/24 18:36:20;;;;;;;1.57;1.10;;;9.10;99.90;;;;;;8214454;28;20252;-66
2023/12/24 18:40:21;;;;;;;1.77;1.37;;;9.10;99.90;;;;;;8216984;28;20191;-65
2023/12/24 18:44:22;;;;;;;2.17;1.13;;;9.20;99.90;;;;;;8210805;28;20215;-65
2023/12/24 18:48:23;;;;;;;2.40;1.40;;;9.30;99.90;;;;;;8218459;28;20196;-65
2023/12/24 18:52:24;;;;;;;2.07;1.40;;;9.30;99.90;;;;;;8209512;28;20210;-65
2023/12/24 18:56:31;;;;;;;1.23;0.93;;;9.30;99.90;;;;;;8202616;28;20218;-65
2023/12/24 19:00:32;;;;;;;2.37;1.10;;;9.40;99.90;;;;;;8202087;28;20289;-65
2023/12/24 19:04:33;;;;;;;2.70;0.90;;;9.40;99.90;;;;;;8200240;28;20215;-64
2023/12/24 19:08:34;;;;;;;1.63;1.27;;;9.40;99.90;;;;;;8209630;28;20226;-67
2023/12/24 19:12:34;;;;;;;1.93;1.27;;;9.40;99.90;;;;;;8204764;28;20243;-65
2023/12/24 19:16:35;;;;;;;1.93;1.10;;;9.40;99.90;;;;;;8211767;28;20617;-65
2023/12/24 19:20:36;;;;;;;2.30;1.10;;;9.30;99.90;;;;;;8204192;28;20203;-65
2023/12/24 19:24:37;;;;;;;2.10;1.43;;;9.20;99.90;;;;;;8202591;28;20226;-66
2023/12/24 19:28:38;;;;;;;2.30;1.57;;;9.10;99.90;;;;;;8219645;28;20240;-64
2023/12/24 19:32:39;;;;;;;1.53;1.13;;;9.00;99.90;;;;;;8205335;28;20224;-65
2023/12/24 19:36:40;;;;;;;1.77;1.20;;;8.90;99.90;;;;;;8219745;28;20458;-66
2023/12/24 19:40:41;;;;;;;1.50;1.20;;;8.90;99.90;;;;;;8207049;28;20191;-65
2023/12/24 19:44:44;;;;;;;1.77;1.10;;;8.90;99.90;;;;;;8206603;28;20283;-65
2023/12/24 19:48:45;;;;;;;1.40;1.00;;;8.90;99.90;;;;;;8216246;28;20218;-65
2023/12/24 19:52:46;;;;;;;2.17;1.20;;;8.90;99.90;;;;;;8214110;28;20237;-64
2023/12/24 19:56:47;;;;;;;1.60;1.13;;;8.90;99.90;;;;;;8217808;28;20205;-63
2023/12/24 20:00:48;;;;;;;1.97;1.27;;;8.90;99.90;;;;;;8211851;28;20281;-64
2023/12/24 20:04:49;;;;;;;1.83;1.33;;;8.90;99.90;;;;;;8212143;28;20222;-64
2023/12/24 20:08:50;;;;;;;1.73;1.07;;;8.90;99.90;;;;;;8203413;28;20212;-65
2023/12/24 20:12:51;;;;;;;2.53;1.40;;;8.90;99.90;;;;;;8212147;28;20202;-66
2023/12/24 20:16:52;;;;;;;3.10;1.90;;;8.90;99.90;;;;;;8204144;28;20190;-64
2023/12/24 20:20:56;;;;;;;1.37;0.90;;;8.90;99.90;;;;;;8208283;28;20259;-64
2023/12/24 20:24:57;;;;;;;2.53;1.30;;;8.90;99.90;;;;;;8203569;28;20222;-63
2023/12/24 20:28:58;;;;;;;1.23;1.10;;;9.00;99.90;;;;;;8225908;28;20223;-65
2023/12/24 20:32:59;;;;;;;1.30;0.97;;;9.00;99.90;;;;;;8203491;28;20508;-65
2023/12/24 20:37:00;;;;;;;1.43;0.90;;;9.00;99.90;;;;;;8209808;28;20187;-63
2023/12/24 20:41:02;;;;;;;1.73;1.27;;;9.10;99.90;;;;;;8209480;28;20182;-63
2023/12/24 20:45:04;;;;;;;1.27;1.17;;;9.10;99.90;;;;;;8197866;28;20203;-64
2023/12/24 20:49:05;;;;;;;1.17;0.90;;;9.10;99.90;;;;;;8194928;28;20657;-64
2023/12/24 20:53:06;;;;;;;1.47;0.97;;;9.10;99.90;;;;;;8188234;28;20202;-63
2023/12/24 20:57:08;;;;;;;1.93;1.00;;;9.10;99.90;;;;;;8165696;28;20198;-64
2023/12/24 21:01:09;;;;;;;1.37;1.07;;;9.10;99.90;;;;;;8174973;28;20187;-68
2023/12/24 21:05:14;;;;;;;1.47;0.90;;;9.10;99.90;;;;;;8188352;28;20673;-65
2023/12/24 21:09:15;;;;;;;2.13;1.20;;;9.10;99.90;;;;;;8191685;28;20195;-64